Date,TemperatureHighF,TemperatureAvgF,TemperatureLowF,DewpointHighF,DewpointAvgF,DewpointLowF,HumidityHigh,HumidityAvg,HumidityLow,PressureMaxIn,PressureMinIn,WindSpeedMaxMPH,WindSpeedAvgMPH,GustSpeedMaxMPH,PrecipitationSumIn
2013-1-1,18,8,-5,7,0,-11,78,70,57,30.37,30.21,3,1,3,0.00
2013-1-2,23,18,13,15,12,7,85,77,70,30.22,30.16,7,2,7,0.00
2013-1-3,23,18,13,18,13,7,84,79,74,30.29,30.17,7,1,7,0.00
2013-1-4,35,20,11,24,14,7,83,75,62,30.32,30.12,4,1,4,0.00
2013-1-5,30,18,5,20,12,-1,84,76,68,30.32,30.04,6,1,6,0.00
2013-1-6,30,22,12,25,17,6,87,81,73,30.36,30.06,3,1,3,0.00
2013-1-7,37,25,13,26,18,8,82,76,63,30.32,30.04,10,3,10,0.00
2013-1-8,40,26,11,28,20,7,83,78,58,30.25,29.99,11,3,11,0.00
2013-1-9,37,31,20,29,23,13,83,73,60,30.58,29.99,9,2,9,0.00
2013-1-10,41,30,18,32,20,12,90,68,43,30.60,30.07,13,4,13,0.00
2013-1-11,40,37,34,39,34,32,95,91,89,30.07,29.71,8,3,8,0.00
2013-1-12,43,29,16,41,24,9,95,81,74,30.17,29.65,8,3,8,0.00
2013-1-13,17,14,7,10,7,1,77,75,70,30.30,30.11,5,2,5,0.00
2013-1-14,16,8,2,8,2,-3,79,75,70,30.51,30.31,5,1,5,0.00
2013-1-15,28,18,4,16,10,-2,82,71,57,30.49,30.08,6,3,6,0.00
2013-1-16,29,23,13,23,16,4,86,75,66,30.26,29.81,7,3,7,0.00
2013-1-17,13,7,0,5,-2,-8,74,68,59,30.50,30.28,4,1,4,0.00
2013-1-18,28,17,-1,21,11,-8,83,79,72,30.47,29.94,7,1,7,0.00
2013-1-19,39,24,5,32,19,-3,89,79,66,30.09,29.76,10,3,10,0.00
2013-1-20,10,2,-4,-1,-6,-12,76,68,57,30.39,30.11,6,1,6,0.00
2013-1-21,-4,-9,-15,-10,-18,-24,74,66,57,30.34,30.25,4,1,4,0.00
2013-1-22,4,-7,-17,-8,-16,-24,71,65,55,30.43,30.32,3,1,3,0.00
2013-1-23,12,-2,-14,3,-10,-22,75,70,65,30.60,30.21,5,1,5,0.00
2013-1-24,11,1,-14,2,-7,-21,79,69,56,30.78,30.46,4,1,4,0.00
2013-1-25,20,12,6,13,7,1,82,78,71,30.44,30.08,4,1,4,0.00
2013-1-26,24,15,4,15,8,0,82,74,62,30.52,30.35,7,2,7,0.00
2013-1-27,31,25,20,26,18,11,91,76,60,30.42,30.08,8,4,8,0.00
2013-1-28,39,32,28,32,28,25,90,83,71,30.11,30.01,7,1,7,0.00
2013-1-29,37,33,30,34,30,27,93,90,86,29.96,29.73,10,2,10,0.00
2013-1-30,30,22,12,27,17,7,88,82,79,29.83,29.65,5,2,5,0.00
2013-1-31,15,8,2,7,2,-4,81,75,63,30.21,29.74,7,2,7,0.00
2013-2-1,2,-4,-10,-4,-10,-15,78,77,76,30.33,30.21,2,1,2,0.00
2013-2-13,41,29,14,33,24,10,86,81,69,29.92,29.85,2,0,2,0.00
2013-2-14,33,26,16,27,20,10,87,80,68,30.22,29.83,6,2,6,0.00
2013-2-15,22,12,-1,12,4,-8,81,72,59,30.36,30.22,6,1,6,0.00
2013-2-16,20,8,-10,8,-2,-17,76,63,54,30.34,30.29,2,1,2,0.00
2013-2-17,25,7,-16,10,-4,-24,71,61,44,30.32,30.07,9,3,9,0.00
2013-2-18,37,28,19,28,21,11,86,75,66,30.05,29.71,10,3,10,0.00
2013-2-19,27,11,4,23,4,-3,86,73,58,30.31,29.71,9,3,9,0.00
2013-2-20,25,13,3,12,5,-4,79,70,55,30.59,30.32,6,2,6,0.00
2013-2-21,30,14,-7,17,6,-14,87,72,54,30.64,30.35,7,2,7,0.00
2013-2-22,26,22,18,22,18,14,89,86,83,30.34,30.01,10,4,10,0.00
2013-2-23,34,24,12,27,19,8,86,81,74,30.09,29.96,2,0,2,0.00
2013-2-24,36,29,24,27,23,20,85,77,65,30.30,30.09,2,0,2,0.00
2013-2-25,35,30,25,28,24,20,82,78,72,30.33,30.27,7,1,7,0.00
2013-2-26,35,30,25,27,24,22,87,78,65,30.29,30.07,6,3,6,0.00
2013-2-27,33,30,28,27,24,23,84,80,74,30.12,30.00,5,3,5,0.00
2013-2-28,30,26,20,24,19,14,84,76,62,30.40,30.12,6,3,6,0.00
2013-3-1,30,21,11,16,12,3,79,67,48,30.50,30.40,5,2,5,0.00
2013-3-2,32,16,-2,15,5,-9,76,61,44,30.48,30.35,4,1,4,0.00
2013-3-3,34,15,-7,14,2,-15,69,56,38,30.36,30.25,4,1,4,0.00
2013-3-4,33,23,9,15,10,1,74,57,43,30.33,30.25,12,4,12,0.00
2013-3-5,32,25,22,19,16,11,82,68,52,30.38,30.24,6,4,6,0.00
2013-3-6,37,26,14,23,17,5,82,70,53,30.51,30.39,5,1,5,0.00
2013-3-7,35,21,8,22,12,0,75,66,55,30.59,30.49,3,0,3,0.00
2013-3-8,42,29,14,26,19,8,80,67,50,30.59,30.43,9,2,9,0.00
2013-3-9,36,32,28,32,27,22,91,82,74,30.42,30.01,10,4,10,0.00
2013-3-10,36,33,28,32,30,25,91,86,80,30.14,29.99,6,2,6,0.00
2013-3-11,33,27,22,26,23,17,91,84,74,30.03,29.84,4,2,4,0.00
2013-3-12,30,23,19,21,17,14,85,78,66,30.20,29.92,5,2,5,0.00
2013-3-13,36,23,13,15,11,3,80,62,41,30.44,30.21,6,2,6,0.00
2013-3-14,41,20,0,24,10,-8,77,65,42,30.43,30.19,4,1,4,0.00
2013-3-15,36,29,18,25,21,13,83,71,50,30.19,30.10,5,2,5,0.00
2013-3-16,32,20,11,18,10,6,81,67,51,30.32,30.13,5,2,5,0.00
2013-3-17,27,15,-5,9,1,-13,70,57,37,30.45,30.22,11,4,11,0.00
2013-3-18,29,23,16,24,17,9,86,80,71,30.22,29.73,12,5,12,0.00
2013-3-19,32,20,13,15,9,4,83,64,43,30.14,29.74,12,4,12,0.00
2013-3-20,24,15,4,7,3,-4,71,60,46,30.23,30.13,9,2,9,0.00
2013-3-21,34,20,5,18,9,-2,76,64,51,30.21,30.18,2,1,2,0.00
2013-3-22,36,21,0,23,11,-8,73,66,58,30.27,30.21,2,0,2,0.00
2013-3-23,37,29,22,24,20,17,81,69,56,30.37,30.27,4,1,4,0.00
2013-3-24,32,28,21,23,20,15,80,74,67,30.31,30.14,6,3,6,0.00
2013-3-25,39,28,19,25,20,14,85,71,53,30.36,30.15,6,2,6,0.00
2013-3-26,42,32,25,29,22,17,80,68,53,30.45,30.35,4,1,4,0.00
2013-3-27,46,35,24,24,20,14,73,57,39,30.50,30.45,4,1,4,0.00
2013-3-28,49,32,14,24,17,7,74,54,33,30.53,30.45,3,1,3,0.00
2013-3-29,53,36,18,26,19,10,73,53,32,30.51,30.38,5,1,5,0.00
2013-3-30,40,35,30,35,29,19,88,77,58,30.37,30.00,6,1,6,0.00
2013-3-31,40,32,23,33,25,14,89,76,50,30.13,29.88,10,2,10,0.00
2013-4-1,34,25,20,14,10,8,67,53,39,30.31,30.14,7,3,7,0.00
2013-4-2,38,28,16,17,11,7,67,50,36,30.49,30.31,7,2,7,0.00
2013-4-3,42,28,10,16,11,2,70,51,32,30.62,30.33,8,2,8,0.00
2013-4-4,52,40,31,32,23,17,62,51,37,30.32,30.18,8,3,8,0.00
2013-4-5,44,34,21,24,18,13,71,53,33,30.46,30.31,5,1,5,0.00
2013-4-6,44,36,30,33,30,25,89,79,63,30.32,29.78,17,6,17,0.00
2013-4-7,46,37,31,34,29,27,87,75,58,30.16,29.82,5,2,5,0.00
2013-4-8,38,35,34,35,31,27,90,85,75,30.11,30.02,7,2,7,0.00
2013-4-10,40,37,33,20,18,16,53,47,43,30.30,30.25,9,6,9,0.00
2013-4-11,35,31,27,25,22,18,90,70,56,30.27,29.96,20,9,20,0.00
2013-4-12,41,31,26,30,25,23,90,80,67,29.96,29.88,7,3,7,0.00
2013-4-13,40,31,21,28,23,15,84,75,60,30.17,29.95,6,1,6,0.00
2013-4-14,38,27,12,30,21,6,90,78,58,30.22,29.93,19,5,19,0.00
2013-4-15,47,38,33,38,30,27,92,75,51,30.10,29.83,12,3,12,0.00
2013-4-16,47,39,33,31,28,23,80,65,50,30.56,30.10,5,2,5,0.00
2013-4-17,41,36,29,31,27,23,85,72,62,30.58,30.22,8,3,8,0.00
2013-4-18,36,35,33,33,32,31,92,90,86,30.21,29.52,7,3,7,0.00
2013-4-19,35,29,22,31,24,17,92,81,62,30.09,29.41,14,2,14,0.00
2013-4-20,39,28,12,22,16,7,83,61,43,30.56,30.09,3,1,3,0.00
2013-4-21,37,33,25,31,24,14,85,71,59,30.62,30.38,14,6,14,0.00
2013-4-22,42,38,33,37,35,30,92,89,84,30.41,30.27,6,2,6,0.00
2013-4-23,40,34,26,32,29,21,93,81,67,30.26,30.13,5,2,5,0.00
2013-4-24,51,37,20,33,24,16,83,61,42,30.22,30.11,5,1,5,0.00
2013-4-25,50,40,31,36,28,22,83,63,39,30.42,30.12,5,1,5,0.00
2013-4-26,66,48,31,42,34,22,80,60,40,30.42,30.28,9,2,9,0.00
2013-4-27,72,54,33,49,39,27,82,59,33,30.38,30.23,7,2,7,0.00
2013-4-28,70,59,44,48,43,38,78,56,39,30.23,30.01,10,2,10,0.00
2013-4-29,70,57,44,54,47,39,85,71,46,30.07,29.95,7,2,7,0.42
2013-4-30,82,66,51,59,50,37,89,62,33,30.15,29.82,9,3,9,0.05
2013-5-1,52,46,35,45,38,30,84,77,64,30.63,30.16,4,1,4,0.11
2013-5-2,35,32,30,31,28,26,89,86,83,30.66,30.56,4,2,4,0.05
2013-5-3,34,32,29,31,29,26,91,89,86,30.56,30.37,4,2,4,0.01
2013-5-4,67,46,34,49,39,31,92,78,52,30.40,30.32,2,1,2,0.30
2013-5-5,72,55,36,46,40,32,84,60,34,30.40,30.29,5,1,5,0.00
2013-5-6,77,60,38,48,39,33,79,49,22,30.36,30.26,4,1,4,0.00
2013-5-7,78,64,45,48,41,36,72,45,26,30.35,30.25,8,1,8,0.00
2013-5-8,80,64,45,47,42,39,78,48,28,30.29,30.23,4,1,4,0.00
2013-5-9,60,49,36,45,40,32,90,72,50,30.35,30.22,6,2,6,0.45
2013-5-10,63,48,33,35,30,28,86,54,30,30.35,30.14,4,2,4,0.00
2013-5-11,47,41,34,34,30,25,82,65,47,30.25,30.05,6,3,6,0.05
2013-5-12,50,39,31,28,23,17,81,56,31,30.35,30.25,7,2,7,0.00
2013-5-13,62,48,26,33,26,17,71,45,25,30.38,30.07,8,2,8,0.00
2013-5-14,79,62,44,50,42,32,68,50,30,30.05,29.75,15,3,15,0.00
2013-5-15,79,67,56,47,41,36,66,41,23,30.11,29.81,8,3,8,0.00
2013-5-16,76,66,52,43,36,30,64,35,22,30.30,30.10,5,2,5,0.00
2013-5-17,72,59,50,52,44,38,81,59,40,30.38,30.30,12,4,12,0.00
2013-5-18,73,61,52,59,53,46,87,75,62,30.35,30.19,12,5,12,0.03
2013-5-19,83,71,60,63,60,55,85,68,48,30.20,30.01,13,5,13,0.00
2013-5-20,79,69,60,61,58,53,87,69,48,30.01,29.86,14,6,14,0.06
2013-5-21,72,63,57,61,58,53,92,81,66,29.98,29.83,8,2,8,0.78
2013-5-22,57,52,49,53,48,44,91,88,83,30.20,29.96,5,2,5,0.13
2013-5-23,56,47,39,43,34,29,85,63,43,30.57,30.21,5,2,5,0.00
2013-5-24,66,51,33,41,34,27,85,55,32,30.66,30.52,3,1,3,0.00
2013-5-25,68,57,46,43,40,36,73,54,36,30.61,30.52,9,2,9,0.00
2013-5-26,68,57,42,40,36,34,75,49,30,30.57,30.43,13,4,13,0.00
2013-5-27,69,59,49,45,41,34,68,52,37,30.45,30.19,14,8,14,0.00
2013-5-28,57,55,53,52,48,43,89,79,60,30.19,30.01,7,3,7,0.10
2013-5-29,78,63,54,63,57,51,90,81,60,30.14,30.04,5,1,5,0.64
2013-5-30,80,68,62,66,63,58,91,83,60,30.09,29.95,12,4,12,0.47
2013-5-31,80,67,56,63,58,52,88,74,48,29.99,29.91,16,3,16,0.37
2013-6-1,69,57,43,61,52,39,89,84,74,30.07,29.90,3,1,3,0.30
2013-6-2,60,48,41,42,39,37,86,71,49,30.27,30.08,3,1,3,0.00
2013-6-3,70,56,38,48,39,34,86,57,34,30.38,30.27,3,1,3,0.00
2013-6-4,60,54,49,49,43,36,82,66,51,30.43,30.37,7,2,7,0.31
2013-6-5,53,51,46,50,48,44,93,90,86,30.42,30.27,9,3,9,0.36
2013-6-6,55,51,49,51,48,45,92,87,74,30.29,30.25,4,1,4,0.13
2013-6-7,64,54,45,52,47,41,88,77,63,30.30,30.21,4,0,4,0.00
2013-6-8,70,59,52,52,50,48,89,74,51,30.28,30.20,6,1,6,0.01
2013-6-9,67,60,52,56,52,47,83,75,64,30.29,30.16,12,4,12,0.01
2013-6-10,78,67,57,62,58,53,87,73,56,30.16,30.07,6,1,6,0.00
2013-6-11,82,68,56,64,57,50,87,70,51,30.17,30.09,3,0,3,0.00
2013-6-12,80,66,53,61,54,47,83,66,43,30.20,30.06,8,1,8,0.00
2013-6-13,72,63,56,54,51,48,81,65,48,30.38,30.12,2,1,2,0.00
2013-6-14,78,65,49,54,49,44,84,60,40,30.42,30.25,6,1,6,0.00
2013-6-15,67,63,58,63,57,51,90,81,62,30.25,30.09,4,1,4,0.39
2013-6-16,78,66,57,66,56,51,92,72,42,30.20,30.10,2,1,2,0.20
2013-6-17,72,62,54,60,54,47,90,78,64,30.32,30.13,5,1,5,0.16
2013-6-18,72,60,44,47,44,38,81,56,37,30.40,30.32,9,1,9,0.00
2013-6-19,75,63,49,56,49,42,75,62,46,30.40,30.30,7,1,7,0.00
2013-6-20,80,67,58,65,59,52,90,76,57,30.39,30.30,4,1,4,0.61
2013-6-21,72,66,63,66,62,59,91,86,76,30.35,30.01,19,2,19,0.31
2013-6-22,72,66,62,65,61,58,91,86,76,30.35,30.18,9,2,9,0.00
2013-6-23,80,72,64,70,65,61,91,77,64,30.20,30.08,9,2,9,0.09
2013-6-24,84,73,62,68,64,59,88,74,55,30.22,30.11,4,1,4,0.00
2013-6-25,85,75,65,70,65,60,87,73,57,30.15,30.07,4,1,4,0.00
2013-6-26,84,72,66,72,66,61,93,83,65,30.10,30.00,4,1,4,2.31
2013-6-27,81,69,63,71,64,59,92,85,58,30.07,29.98,8,1,8,0.44
2013-6-28,69,64,59,64,60,56,90,87,82,30.02,29.94,2,0,2,0.16
2013-6-29,70,62,56,59,55,48,91,77,57,30.23,30.00,2,0,2,0.02
2013-6-30,78,66,51,57,50,46,84,59,37,30.38,30.23,2,0,2,0.00
2013-7-1,80,74,64,59,52,49,70,48,38,30.45,30.41,1,0,1,0.00
2013-7-2,80,67,55,55,50,44,74,57,39,30.44,30.33,3,0,3,0.00
2013-7-3,80,66,53,60,51,45,78,61,39,30.38,30.27,6,1,6,0.00
2013-7-4,82,71,62,62,59,56,82,65,47,30.30,30.22,6,1,6,0.00
2013-7-5,85,75,64,64,59,56,80,59,41,30.27,30.19,5,2,5,0.00
2013-7-6,88,78,67,67,63,59,77,61,47,30.24,30.18,5,2,5,0.00
2013-7-7,85,76,68,71,66,62,85,74,61,30.23,30.16,5,1,5,0.09
2013-7-8,84,74,68,71,67,65,90,80,64,30.27,30.17,2,0,2,0.06
2013-7-9,76,71,68,71,67,64,91,87,81,30.27,30.03,4,1,4,0.38
2013-7-10,72,66,59,65,57,53,91,73,55,30.30,30.08,3,1,3,0.00
2013-7-11,82,69,55,63,55,50,87,65,39,30.39,30.30,5,1,5,0.00
2013-7-12,82,71,59,64,58,53,82,64,45,30.39,30.30,10,2,10,0.00
2013-7-13,84,73,66,63,60,56,74,63,49,30.40,30.30,9,2,9,0.00
2013-7-14,86,75,65,65,62,56,78,64,49,30.49,30.41,6,1,6,0.00
2013-7-15,88,76,65,72,66,60,86,71,51,30.56,30.49,6,1,6,0.00
2013-7-16,91,81,72,76,70,67,88,72,54,30.52,30.45,3,1,3,0.00
2013-7-17,91,80,70,73,68,65,88,70,51,30.52,30.41,2,0,2,0.00
2013-7-18,90,80,70,73,69,65,87,69,50,30.40,30.04,6,1,6,0.10
2013-7-19,86,77,64,72,64,56,79,64,48,30.10,29.95,6,1,6,0.00
2013-7-20,74,67,60,59,53,48,81,63,45,30.28,30.10,2,0,2,0.65
2013-7-21,71,62,57,59,54,48,82,73,64,30.29,30.18,6,3,6,0.00
2013-7-22,81,68,59,69,61,55,91,80,63,30.17,29.91,5,2,5,0.33
2013-7-23,68,60,54,56,50,47,86,70,49,30.28,30.04,2,1,2,0.00
2013-7-24,72,60,49,60,51,44,85,71,56,30.35,30.27,2,0,2,0.00
2013-7-25,79,65,54,65,57,49,84,76,58,30.28,30.15,5,1,5,0.34
2013-7-26,75,61,49,63,55,44,89,81,56,30.25,30.11,2,0,2,0.11
2013-7-27,57,51,47,49,46,43,87,82,72,30.22,30.09,1,0,1,0.05
2013-7-28,58,53,47,53,48,43,90,85,81,30.28,30.10,2,0,2,0.01
2013-7-29,76,62,46,59,52,42,88,71,52,30.40,30.27,1,0,1,0.01
2013-7-30,71,64,59,62,58,53,88,81,70,30.43,30.33,5,0,5,0.12
2013-7-31,74,67,58,64,58,50,89,76,55,30.33,30.19,2,0,2,0.00
2013-8-1,73,62,53,60,54,48,84,74,63,30.23,30.14,2,0,2,0.06
2013-8-2,75,64,55,59,53,49,88,70,46,30.27,30.09,2,0,2,0.03
2013-8-3,73,62,50,58,50,45,84,67,46,30.44,30.27,2,0,2,0.00
2013-8-4,73,61,50,57,50,44,84,66,49,30.49,30.34,2,0,2,0.00
2013-8-5,68,61,55,63,56,48,89,84,76,30.34,30.10,2,1,2,0.44
2013-8-6,77,68,61,64,60,57,91,78,57,30.12,30.01,3,1,3,0.56
2013-8-7,72,63,55,60,55,48,91,75,46,30.29,29.98,4,0,4,0.03
2013-8-8,76,62,49,60,52,44,86,72,47,30.31,30.25,6,0,6,0.00
2013-8-9,73,63,57,56,52,49,87,69,47,30.35,30.22,3,0,3,0.00
2013-8-10,71,62,55,58,54,49,84,74,60,30.42,30.35,2,0,2,0.00
2013-8-11,76,63,51,59,54,46,86,72,53,30.37,30.28,2,0,2,0.00
2013-8-12,75,63,52,64,54,44,88,73,50,30.33,30.23,2,0,2,0.00
2013-8-13,65,55,46,52,46,41,85,71,50,30.44,30.33,2,0,2,0.00
2013-8-14,72,57,44,52,46,38,85,70,50,30.47,30.37,2,0,2,0.00
2013-8-15,77,63,49,58,51,44,84,67,46,30.38,30.33,3,0,3,0.00
2013-8-16,80,66,52,61,54,47,85,68,47,30.44,30.38,4,0,4,0.00
2013-8-17,81,68,55,62,55,50,86,66,43,30.49,30.40,4,1,4,0.00
2013-8-18,82,68,55,62,54,49,83,64,43,30.45,30.31,5,1,5,0.00
2013-8-19,79,69,58,65,59,52,82,73,61,30.32,30.23,4,1,4,0.00
2013-8-20,86,74,64,70,65,59,86,74,58,30.27,30.19,6,2,6,0.00
2013-8-21,86,74,66,73,66,61,87,79,64,30.29,30.15,7,1,7,0.03
2013-8-22,81,70,60,62,56,51,89,64,40,30.43,30.28,2,0,2,0.01
2013-8-23,81,68,55,60,55,49,83,65,48,30.47,30.38,7,2,7,0.00
2013-8-24,79,71,61,63,59,55,83,67,55,30.48,30.34,7,2,7,0.00
2013-8-25,93,82,71,73,70,65,84,67,51,30.33,30.25,5,2,5,0.00
2013-8-26,83,76,67,74,70,63,90,82,71,30.32,30.21,8,1,8,0.97
2013-8-27,80,75,70,75,72,67,93,88,81,30.22,30.12,1,0,1,0.25
2013-8-28,85,74,67,70,66,64,93,79,51,30.33,30.20,4,0,4,0.00
2013-8-29,81,72,66,70,66,63,92,83,66,30.36,30.15,12,2,12,1.67
2013-8-30,76,70,63,68,64,58,93,83,67,30.22,30.10,3,1,3,0.00
2013-8-31,82,69,58,67,61,55,91,78,56,30.21,30.06,7,1,7,0.00
2013-9-1,74,67,60,64,61,56,90,80,66,30.16,30.00,3,1,3,0.21
2013-9-2,60,56,51,56,50,46,88,82,75,30.30,30.16,2,0,2,0.00
2013-9-3,74,62,44,56,52,40,89,70,50,30.33,30.23,4,1,4,0.00
2013-9-4,74,63,54,60,54,47,88,75,58,30.44,30.25,2,0,2,0.00
2013-9-5,74,60,47,54,49,42,88,70,46,30.55,30.45,4,1,4,0.00
2013-9-6,81,67,55,68,59,49,83,76,65,30.45,30.20,4,1,4,0.00
2013-9-7,85,74,62,72,65,56,88,74,59,30.36,30.17,2,1,2,0.00
2013-9-8,68,60,53,52,51,48,86,73,55,30.41,30.37,10,4,10,0.00
2013-9-10,80,72,66,67,65,62,87,78,64,30.20,30.14,3,0,3,0.07
2013-9-11,81,71,60,66,60,53,91,70,56,30.27,30.21,4,1,4,0.00
2013-9-12,66,60,52,54,49,44,86,69,58,30.43,30.32,4,1,4,0.00
2013-9-13,65,58,49,48,46,44,83,66,53,30.50,30.38,1,0,1,0.00
2013-9-14,70,63,50,53,50,44,82,65,51,30.35,30.22,3,1,3,0.00
2013-9-15,57,53,44,54,48,39,89,84,78,30.53,30.25,2,0,2,0.04
2013-9-16,64,55,40,47,44,36,88,67,49,30.66,30.56,2,0,2,0.00
2013-9-17,67,59,44,51,48,40,86,68,53,30.55,30.34,8,3,8,0.00
2013-9-18,66,62,56,63,59,53,93,91,89,30.22,30.10,5,2,5,0.03
2013-9-19,76,68,64,70,64,61,94,90,81,30.11,29.97,9,2,9,0.25
2013-9-20,71,61,52,62,56,47,93,82,66,30.08,29.95,3,1,3,0.03
2013-9-21,56,51,45,45,43,39,88,75,64,30.22,30.15,1,0,1,0.01
2013-9-22,60,56,48,46,44,41,78,66,57,30.33,30.25,5,2,5,0.00
2013-9-23,67,58,43,53,48,39,87,71,58,30.36,30.28,8,4,8,0.00
2013-9-24,73,59,46,58,50,42,93,75,51,30.33,30.24,5,1,5,0.00
2013-9-25,72,57,46,56,49,42,89,75,51,30.29,30.23,5,1,5,0.00
2013-9-26,73,61,47,54,51,44,90,71,52,30.33,30.28,8,3,8,0.00
2013-9-27,77,70,57,58,54,50,79,59,47,30.35,30.24,11,4,11,0.00
2013-9-28,75,64,53,60,55,49,86,73,57,30.15,29.99,12,5,12,0.00
2013-9-29,71,60,45,54,47,41,87,64,43,30.25,30.18,3,1,3,0.65
2013-9-30,71,60,51,50,47,45,78,63,44,30.18,29.99,11,3,11,0.00
2013-10-1,78,67,54,58,47,39,80,52,31,30.17,29.96,3,1,3,0.00
2013-10-2,75,65,47,47,43,39,73,47,30,30.33,30.22,5,1,5,0.00
2013-10-3,61,57,51,53,51,46,88,80,72,30.21,30.16,3,1,3,0.11
2013-10-4,57,55,53,52,51,50,93,88,84,30.32,30.27,4,2,4,0.15
2013-10-5,57,55,54,55,53,52,95,93,92,30.22,30.00,8,4,8,0.46
2013-10-6,62,55,50,51,48,45,92,78,65,29.96,29.91,5,1,5,0.00
2013-10-7,61,52,42,47,42,39,89,70,52,30.26,30.04,2,1,2,0.00
2013-10-8,73,61,42,49,45,37,83,57,40,30.32,30.22,8,4,8,0.00
2013-10-9,73,62,54,53,48,45,71,60,45,30.38,30.27,11,2,11,0.00
2013-10-10,71,63,51,50,47,44,78,56,43,30.38,30.29,7,2,7,0.00
2013-10-11,70,60,51,55,50,44,83,70,55,30.30,30.14,17,5,17,0.00
2013-10-12,68,60,49,55,46,39,79,62,46,30.28,30.09,7,3,7,0.00
2013-10-13,60,52,40,41,37,32,78,57,44,30.63,30.53,2,1,2,0.00
2013-10-14,57,52,39,43,38,34,84,61,49,30.64,30.42,12,4,12,0.00
2013-10-15,54,52,49,51,49,46,92,91,89,30.16,29.95,10,4,10,0.40
2013-10-16,45,43,36,42,39,32,90,85,81,30.14,30.05,3,1,3,0.00
2013-10-17,55,47,35,45,39,32,90,74,58,30.08,29.99,2,1,2,0.01
2013-10-18,45,40,34,41,36,30,89,86,83,30.12,30.02,3,1,3,0.13
2013-10-19,50,41,35,39,35,32,89,80,64,29.97,29.88,5,1,5,0.15
2013-10-20,49,38,36,43,34,32,91,86,72,30.03,29.90,4,2,4,0.18
2013-10-21,34,33,31,30,26,24,89,78,68,30.04,30.00,5,2,5,0.00
2013-10-22,40,35,33,32,30,28,89,81,69,30.19,30.10,2,1,2,0.03
2013-10-23,39,34,29,30,26,24,83,75,59,30.19,30.13,4,1,4,0.03
2013-10-24,41,34,31,30,27,24,84,75,64,30.43,30.19,5,2,5,0.00
2013-10-25,47,41,27,36,30,23,85,66,56,30.45,29.91,6,3,6,0.00
2013-10-26,45,41,37,34,31,29,80,68,56,30.25,30.04,6,2,6,0.00
2013-10-27,52,44,33,35,32,28,81,64,47,30.30,30.02,5,2,5,0.00
2013-10-28,29,29,29,22,22,22,75,74,74,30.58,30.58,3,3,3,0.00
2013-11-3,43,41,40,36,34,33,83,76,71,30.37,30.35,16,9,16,0.00
2013-11-4,46,44,42,42,39,36,91,85,75,30.29,30.17,14,6,14,0.12
2013-11-5,47,41,32,40,35,30,91,81,70,30.46,30.22,6,1,6,0.11
2013-11-6,36,32,28,32,28,22,91,84,79,30.30,30.09,4,2,4,0.13
2013-11-7,38,30,22,28,23,18,86,78,62,30.37,30.30,6,1,6,0.02
2013-11-8,38,35,27,32,28,23,88,77,68,30.41,30.05,14,5,14,0.00
2013-11-9,38,36,34,36,32,30,92,86,82,30.20,29.86,9,3,9,0.00
2013-11-10,40,36,34,30,29,28,84,76,67,30.45,30.20,9,2,9,0.01
2013-11-11,27,24,22,18,16,15,77,70,61,30.71,30.43,8,3,8,0.01
2013-11-12,29,22,15,15,11,9,79,63,48,30.82,30.62,4,2,4,0.00
2013-11-13,46,36,18,31,25,12,75,65,53,30.41,30.09,7,3,7,0.00
2013-11-14,40,36,30,32,29,25,81,75,71,30.07,30.01,3,1,3,0.00
2013-11-15,52,41,31,42,35,28,89,78,66,30.10,30.03,4,1,4,0.00
2013-11-16,51,43,38,49,40,35,94,92,86,29.89,29.57,10,4,10,0.00
2013-11-17,46,42,36,42,38,32,90,88,85,29.71,29.49,7,2,7,0.00
2013-11-18,30,28,26,22,20,18,77,72,69,30.40,29.98,7,3,7,0.00
2013-11-19,36,32,19,24,22,14,82,67,55,30.50,30.32,12,6,12,0.00
2013-11-20,37,34,32,30,29,26,91,81,65,30.31,30.27,15,5,15,0.00
2013-11-21,36,33,28,33,29,24,90,88,85,30.55,30.32,3,1,3,0.00
2013-11-22,34,26,19,24,18,12,86,74,56,30.65,30.53,5,2,5,0.00
2013-11-23,16,11,3,6,2,-4,75,68,60,30.82,30.71,7,2,7,0.00
2013-11-24,21,14,-2,10,5,-8,76,66,58,30.74,30.22,8,3,8,0.00
2013-11-25,35,31,26,26,24,19,77,75,72,30.12,30.05,7,2,7,0.00
2013-11-26,22,16,9,14,7,3,77,68,58,30.39,30.20,5,1,5,0.00
2013-11-27,28,21,10,17,13,5,81,69,59,30.44,30.34,3,1,3,0.00
2013-11-28,26,21,13,18,14,7,82,76,69,30.61,30.34,2,0,2,0.00
2013-11-29,26,22,18,18,16,14,83,78,70,30.73,30.46,11,3,11,0.00
2013-11-30,37,32,26,28,25,20,79,75,71,30.31,30.21,3,1,3,0.00
2013-12-1,36,32,30,29,26,24,84,78,71,30.35,30.19,2,0,2,0.00
2013-12-2,33,31,30,28,26,25,83,81,78,30.02,30.01,11,8,11,0.00
2013-12-5,14,11,6,9,5,1,82,78,73,30.32,29.92,6,2,6,0.00
2013-12-6,11,3,-6,3,-3,-11,80,76,71,30.61,30.45,3,1,3,0.00
2013-12-7,8,-1,-11,0,-8,-16,78,74,69,30.74,30.68,3,1,3,0.00
2013-12-8,11,7,-4,7,2,-10,83,80,76,30.60,30.18,4,2,4,0.00
2013-12-9,12,6,-8,8,0,-14,83,77,65,30.19,30.02,6,1,6,0.00
2013-12-10,10,3,-2,3,-3,-8,79,75,70,30.27,29.98,5,2,5,0.00
2013-12-11,-9,-10,-10,-14,-15,-15,78,78,78,30.49,30.47,3,1,3,0.00
2013-12-12,16,9,-5,7,2,-11,78,75,70,30.38,30.28,5,1,5,0.00
2013-12-13,9,8,3,4,1,-2,79,74,69,30.49,30.35,3,2,3,0.00
2013-12-14,11,10,9,6,5,4,82,81,81,30.41,30.38,3,3,3,0.00
2013-12-15,8,-1,-11,0,-8,-17,73,71,66,30.25,30.14,5,1,5,0.00
2013-12-16,12,6,-10,4,0,-16,81,76,70,30.25,30.07,6,1,6,0.00
2013-12-17,27,21,15,22,16,10,87,82,78,30.17,29.98,4,1,4,0.00
2013-12-18,25,13,-1,15,6,-6,80,73,61,30.17,29.88,7,2,7,0.00
2013-12-19,22,18,14,17,13,8,85,78,72,30.27,30.10,5,2,5,0.00
2013-12-20,20,17,10,16,13,5,83,82,79,30.19,30.04,5,1,5,0.00
2013-12-21,26,22,18,20,17,13,85,82,77,30.18,30.03,2,0,2,0.00
2013-12-22,26,22,19,20,17,15,84,82,79,30.27,30.07,4,1,4,0.00
2013-12-23,21,13,-2,14,7,-8,82,76,70,30.55,30.41,4,1,4,0.00
2013-12-24,18,9,-12,9,2,-17,81,73,62,30.59,30.38,8,3,8,0.00
2013-12-25,19,15,10,12,10,5,81,78,73,30.25,30.19,4,1,4,0.00
2013-12-26,18,14,6,10,8,1,80,76,72,30.35,30.27,2,0,2,0.00
2013-12-27,30,25,18,26,22,14,88,86,84,30.32,30.06,6,2,6,0.00
2013-12-28,36,30,26,32,27,23,92,88,85,30.15,29.95,5,1,5,0.00
2013-12-29,23,8,-9,20,2,-16,86,75,64,30.34,30.03,6,2,6,0.00
2013-12-30,3,-1,-7,-7,-10,-14,71,66,62,30.34,30.30,2,0,2,0.00
2013-12-31,3,-7,-18,-6,-15,-26,75,67,60,30.50,30.29,3,0,3,0.00
2014-1-1,6,2,-6,-1,-6,-13,75,71,67,30.60,30.53,3,0,3,0.00
2014-1-2,11,0,-15,1,-8,-21,75,68,59,30.56,30.50,2,0,2,0.00